Time;durP1;ratioP1;P1;durP2;ratioP2;P2;SDS_P1;SDS_P2;PMS_P1;PMS_P2;Temp;Humidity;BMP_temperature;BMP_pressure;BME280_temperature;BME280_humidity;BME280_pressure;Samples;Min_cycle;Max_cycle;Signal;HPM_P1;HPM_P2
2022/04/25 00:00:14;;;;;;;2.47;2.33;;;;;;;;;;2079334;28;20061;-64
2022/04/25 00:01:34;;;;;;;3.05;2.33;;;;;;;;;;2082996;28;20395;-64
2022/04/25 00:02:53;;;;;;;2.30;2.20;;;;;;;;;;2085795;28;20029;-63
2022/04/25 00:04:12;;;;;;;2.30;2.20;;;;;;;;;;2083761;28;20407;-66
2022/04/25 00:05:31;;;;;;;2.03;1.92;;;;;;;;;;2085609;28;20037;-64
2022/04/25 00:06:50;;;;;;;2.38;2.03;;;;;;;;;;2085691;28;20028;-64
2022/04/25 00:08:09;;;;;;;4.22;2.30;;;;;;;;;;2075872;28;20073;-65
2022/04/25 00:09:27;;;;;;;2.28;2.17;;;;;;;;;;2081965;28;20025;-64
2022/04/25 00:10:46;;;;;;;2.35;2.20;;;;;;;;;;2085261;28;20034;-64
2022/04/25 00:12:06;;;;;;;2.63;2.42;;;;;;;;;;2085242;28;20061;-64
2022/04/25 00:13:24;;;;;;;2.30;2.20;;;;;;;;;;2085639;28;20029;-64
2022/04/25 00:14:43;;;;;;;2.35;2.17;;;;;;;;;;2087215;28;20101;-65
2022/04/25 00:16:02;;;;;;;2.58;2.38;;;;;;;;;;2085342;28;20029;-65
2022/04/25 00:17:21;;;;;;;4.47;2.00;;;;;;;;;;2085706;28;20033;-65
2022/04/25 00:18:41;;;;;;;2.47;2.30;;;;;;;;;;2077289;28;20021;-65
2022/04/25 00:19:59;;;;;;;4.53;2.13;;;;;;;;;;2082516;28;20112;-64
2022/04/25 00:21:19;;;;;;;1.90;1.80;;;;;;;;;;2085557;28;20038;-64
2022/04/25 00:22:38;;;;;;;2.40;2.20;;;;;;;;;;2086974;28;20020;-65
2022/04/25 00:23:57;;;;;;;3.38;2.15;;;;;;;;;;2086385;28;20037;-64
2022/04/25 00:25:17;;;;;;;2.17;1.98;;;;;;;;;;2086675;28;20025;-65
2022/04/25 00:26:36;;;;;;;1.92;1.83;;;;;;;;;;2087321;28;20041;-64
2022/04/25 00:27:54;;;;;;;2.47;2.28;;;;;;;;;;2086212;28;20034;-64
2022/04/25 00:29:13;;;;;;;2.45;2.10;;;;;;;;;;2077584;28;20475;-65
2022/04/25 00:30:32;;;;;;;3.15;2.22;;;;;;;;;;2077976;28;20030;-64
2022/04/25 00:31:51;;;;;;;2.50;2.28;;;;;;;;;;2082743;28;20025;-64
2022/04/25 00:33:09;;;;;;;3.25;2.08;;;;;;;;;;2084104;28;20021;-68
2022/04/25 00:34:28;;;;;;;2.40;2.00;;;;;;;;;;2085734;28;20033;-64
2022/04/25 00:35:47;;;;;;;2.17;2.08;;;;;;;;;;2084438;28;20333;-65
2022/04/25 00:37:06;;;;;;;2.40;2.20;;;;;;;;;;2085999;28;20037;-64
2022/04/25 00:38:25;;;;;;;2.92;2.10;;;;;;;;;;2086562;28;20033;-64
2022/04/25 00:39:44;;;;;;;2.28;2.17;;;;;;;;;;2085975;28;20037;-66
2022/04/25 00:41:05;;;;;;;2.25;1.98;;;;;;;;;;2088366;28;20034;-67
2022/04/25 00:42:25;;;;;;;2.03;1.92;;;;;;;;;;2087691;28;20041;-67
2022/04/25 00:43:44;;;;;;;2.35;2.15;;;;;;;;;;2085346;28;20049;-67
2022/04/25 00:45:03;;;;;;;2.88;2.10;;;;;;;;;;2086890;28;20029;-66
2022/04/25 00:46:23;;;;;;;3.83;2.10;;;;;;;;;;2077880;28;20046;-66
2022/04/25 00:47:43;;;;;;;2.00;1.90;;;;;;;;;;2082167;28;20026;-66
2022/04/25 00:49:02;;;;;;;3.35;1.92;;;;;;;;;;2089521;28;20487;-66
2022/04/25 00:50:20;;;;;;;3.08;2.15;;;;;;;;;;2085188;28;20495;-66
2022/04/25 00:51:39;;;;;;;1.77;1.67;;;;;;;;;;2085429;28;20488;-65
2022/04/25 00:52:59;;;;;;;3.03;2.00;;;;;;;;;;2077952;28;20041;-65
2022/04/25 00:54:19;;;;;;;2.78;2.47;;;;;;;;;;2073533;28;20481;-66
2022/04/25 00:55:39;;;;;;;2.08;1.88;;;;;;;;;;2074754;28;20393;-65
2022/04/25 00:56:58;;;;;;;2.50;2.30;;;;;;;;;;2073851;28;20033;-65
2022/04/25 00:58:17;;;;;;;3.40;2.47;;;;;;;;;;2078197;28;20105;-66
2022/04/25 00:59:36;;;;;;;2.50;2.00;;;;;;;;;;2083578;28;20065;-65
2022/04/25 01:00:55;;;;;;;3.30;2.75;;;;;;;;;;2086640;28;20029;-65
2022/04/25 01:02:14;;;;;;;1.92;1.83;;;;;;;;;;2086607;28;20032;-65
2022/04/25 01:03:33;;;;;;;3.70;2.38;;;;;;;;;;2086547;28;20033;-65
2022/04/25 01:04:53;;;;;;;4.82;2.10;;;;;;;;;;2086694;28;20033;-65
2022/04/25 01:06:12;;;;;;;3.45;2.10;;;;;;;;;;2085473;28;20025;-66
2022/04/25 01:07:32;;;;;;;3.28;2.13;;;;;;;;;;2086080;28;20371;-65
2022/04/25 01:08:51;;;;;;;2.40;2.20;;;;;;;;;;2086290;28;20025;-65
2022/04/25 01:10:10;;;;;;;3.03;2.72;;;;;;;;;;2086161;28;20111;-65
2022/04/25 01:11:29;;;;;;;2.35;2.15;;;;;;;;;;2087676;28;20037;-65
2022/04/25 01:12:48;;;;;;;2.38;2.28;;;;;;;;;;2086103;28;20479;-66
2022/04/25 01:14:17;;;;;;;2.58;2.40;;;;;;;;;;2085116;28;20060;-65
2022/04/25 01:15:36;;;;;;;3.53;2.15;;;;;;;;;;2086603;28;20021;-65
2022/04/25 01:16:55;;;;;;;4.20;2.50;;;;;;;;;;2085439;28;20395;-65
2022/04/25 01:18:14;;;;;;;2.08;1.95;;;;;;;;;;2076969;28;20133;-65
2022/04/25 01:19:32;;;;;;;8.63;2.20;;;;;;;;;;2082708;28;20033;-65
2022/04/25 01:20:55;;;;;;;2.53;2.28;;;;;;;;;;2076999;28;20026;-65
2022/04/25 01:22:14;;;;;;;2.40;2.15;;;;;;;;;;2082538;28;20038;-65
2022/04/25 01:28:27;;;;;;;2.58;2.38;;;;;;;;;;2086747;28;20029;-65
2022/04/25 01:29:47;;;;;;;2.28;2.10;;;;;;;;;;2086144;28;20037;-64
2022/04/25 01:31:06;;;;;;;2.83;2.30;;;;;;;;;;2084350;28;20022;-64
2022/04/25 01:32:25;;;;;;;2.63;2.42;;;;;;;;;;2075518;28;20468;-64
2022/04/25 01:33:44;;;;;;;2.60;2.40;;;;;;;;;;2081686;28;20048;-67
2022/04/25 01:35:04;;;;;;;3.53;2.80;;;;;;;;;;2086753;28;20448;-64
2022/04/25 01:36:23;;;;;;;2.22;2.05;;;;;;;;;;2086519;28;20025;-66
2022/04/25 01:37:42;;;;;;;2.40;2.20;;;;;;;;;;2087342;28;20021;-66
2022/04/25 01:39:01;;;;;;;2.45;2.25;;;;;;;;;;2085006;28;20028;-64
2022/04/25 01:40:20;;;;;;;2.85;2.63;;;;;;;;;;2084690;28;20045;-65
2022/04/25 01:41:42;;;;;;;2.67;2.45;;;;;;;;;;2085714;28;20499;-65
2022/04/25 01:43:02;;;;;;;3.22;2.28;;;;;;;;;;2084982;28;20128;-65
2022/04/25 01:44:21;;;;;;;2.08;1.95;;;;;;;;;;2087052;28;20029;-65
2022/04/25 01:45:40;;;;;;;2.45;2.30;;;;;;;;;;2084507;28;20037;-65
2022/04/25 01:46:59;;;;;;;2.70;2.50;;;;;;;;;;2086624;28;20112;-65
2022/04/25 01:48:18;;;;;;;2.58;2.38;;;;;;;;;;2086086;28;20073;-65
2022/04/25 01:49:37;;;;;;;2.33;2.15;;;;;;;;;;2084081;28;20495;-65
2022/04/25 01:50:56;;;;;;;3.40;2.70;;;;;;;;;;2075905;28;20033;-66
2022/04/25 01:52:24;;;;;;;2.50;2.25;;;;;;;;;;2083355;28;20041;-64
2022/04/25 01:53:43;;;;;;;4.22;2.58;;;;;;;;;;2083893;28;20101;-65
2022/04/25 01:55:03;;;;;;;1.90;1.77;;;;;;;;;;2086769;28;20450;-65
2022/04/25 01:56:22;;;;;;;2.58;2.20;;;;;;;;;;2085885;28;20061;-65
2022/04/25 01:57:42;;;;;;;2.13;2.00;;;;;;;;;;2086179;28;20025;-65
2022/04/25 01:59:01;;;;;;;2.17;2.00;;;;;;;;;;2084048;28;20104;-66
2022/04/25 02:00:21;;;;;;;2.17;2.08;;;;;;;;;;2076394;28;20037;-66
2022/04/25 02:01:40;;;;;;;4.65;2.42;;;;;;;;;;2074017;28;20025;-65
2022/04/25 02:02:58;;;;;;;2.03;1.80;;;;;;;;;;2081572;28;20037;-64
2022/04/25 02:04:17;;;;;;;2.08;1.95;;;;;;;;;;2085567;28;20068;-64
2022/04/25 02:05:36;;;;;;;2.15;2.05;;;;;;;;;;2086025;28;20033;-65
2022/04/25 02:06:55;;;;;;;1.95;1.85;;;;;;;;;;2084348;28;20498;-65
2022/04/25 02:08:14;;;;;;;3.28;2.33;;;;;;;;;;2087153;28;20037;-65
2022/04/25 02:09:34;;;;;;;2.08;1.92;;;;;;;;;;2086096;28;20025;-64
2022/04/25 02:11:38;;;;;;;2.25;2.15;;;;;;;;;;2084605;28;20488;-64
2022/04/25 02:12:32;;;;;;;2.47;2.28;;;;;;;;;;2082476;28;20021;-64
2022/04/25 02:13:52;;;;;;;2.30;2.20;;;;;;;;;;2084676;28;20053;-63
2022/04/25 02:15:12;;;;;;;2.92;2.22;;;;;;;;;;2077360;28;20515;-66
2022/04/25 02:16:31;;;;;;;3.90;2.17;;;;;;;;;;2074291;28;20088;-64
2022/04/25 02:17:50;;;;;;;1.88;1.77;;;;;;;;;;2082134;28;20041;-65
2022/04/25 02:19:09;;;;;;;2.40;2.30;;;;;;;;;;2084956;28;20064;-64
2022/04/25 02:20:28;;;;;;;2.20;2.10;;;;;;;;;;2085403;28;20585;-64
2022/04/25 02:21:48;;;;;;;2.03;1.92;;;;;;;;;;2083895;28;20097;-65
2022/04/25 02:23:06;;;;;;;2.45;2.25;;;;;;;;;;2086312;28;20057;-64
2022/04/25 02:24:25;;;;;;;2.53;2.33;;;;;;;;;;2085059;28;20479;-65
2022/04/25 02:25:44;;;;;;;2.60;2.40;;;;;;;;;;2083530;28;20021;-64
2022/04/25 02:27:04;;;;;;;3.20;2.17;;;;;;;;;;2076571;28;20034;-64
2022/04/25 02:28:23;;;;;;;2.63;2.42;;;;;;;;;;2073025;28;20025;-64
2022/04/25 02:29:46;;;;;;;2.97;2.22;;;;;;;;;;2076214;28;20037;-65
2022/04/25 02:31:06;;;;;;;2.30;2.10;;;;;;;;;;2082723;28;20029;-65
2022/04/25 02:32:27;;;;;;;2.45;2.28;;;;;;;;;;2084027;28;20396;-64
2022/04/25 02:33:46;;;;;;;3.00;2.20;;;;;;;;;;2085337;28;20038;-64
2022/04/25 02:35:05;;;;;;;2.38;2.00;;;;;;;;;;2085382;28;20036;-65
2022/04/25 02:36:24;;;;;;;2.58;2.05;;;;;;;;;;2084976;28;20040;-65
2022/04/25 02:37:43;;;;;;;2.10;2.00;;;;;;;;;;2085596;28;20045;-64
2022/04/25 02:39:03;;;;;;;2.50;2.20;;;;;;;;;;2085380;28;20064;-64
2022/04/25 02:40:21;;;;;;;2.65;2.05;;;;;;;;;;2082592;28;20383;-64
2022/04/25 02:41:40;;;;;;;2.30;2.20;;;;;;;;;;2087280;28;20391;-65
2022/04/25 02:42:59;;;;;;;2.53;2.08;;;;;;;;;;2084952;28;20403;-64
2022/04/25 02:44:20;;;;;;;2.40;2.20;;;;;;;;;;2084641;28;20495;-64
2022/04/25 02:45:39;;;;;;;2.35;2.25;;;;;;;;;;2084536;28;20037;-64
2022/04/25 02:46:58;;;;;;;2.13;2.03;;;;;;;;;;2088666;28;20523;-65
2022/04/25 02:48:17;;;;;;;2.95;2.15;;;;;;;;;;2085442;28;20053;-67
2022/04/25 02:49:36;;;;;;;2.58;2.08;;;;;;;;;;2083431;28;20033;-64
2022/04/25 02:50:55;;;;;;;2.22;2.05;;;;;;;;;;2085896;28;20033;-65
2022/04/25 02:52:14;;;;;;;2.63;2.47;;;;;;;;;;2084797;28;20068;-64
2022/04/25 02:53:33;;;;;;;3.50;2.33;;;;;;;;;;2074750;28;20025;-64
2022/04/25 02:54:51;;;;;;;2.55;2.35;;;;;;;;;;2081124;28;20018;-65
2022/04/25 02:56:11;;;;;;;1.90;1.80;;;;;;;;;;2085362;28;20440;-65
2022/04/25 02:57:29;;;;;;;5.47;2.10;;;;;;;;;;2085587;28;20029;-64
2022/04/25 02:58:48;;;;;;;2.15;2.05;;;;;;;;;;2084727;28;20021;-64
2022/04/25 03:00:08;;;;;;;3.00;2.45;;;;;;;;;;2085009;28;20025;-64
2022/04/25 03:01:27;;;;;;;2.47;2.03;;;;;;;;;;2087483;28;20029;-65
2022/04/25 03:02:45;;;;;;;2.25;2.10;;;;;;;;;;2075122;28;20026;-64
2022/04/25 03:04:04;;;;;;;3.22;2.25;;;;;;;;;;2081582;28;20029;-64
2022/04/25 03:05:23;;;;;;;3.53;2.13;;;;;;;;;;2086822;28;20025;-64
2022/04/25 03:06:42;;;;;;;2.20;2.00;;;;;;;;;;2085438;28;20037;-65
2022/04/25 03:08:02;;;;;;;3.05;2.28;;;;;;;;;;2085435;28;20476;-64
2022/04/25 03:09:22;;;;;;;3.10;2.42;;;;;;;;;;2085576;28;20037;-65
2022/04/25 03:10:45;;;;;;;1.73;1.63;;;;;;;;;;2076813;28;20015;-65
2022/04/25 03:12:04;;;;;;;2.17;2.08;;;;;;;;;;2081789;28;20030;-65
2022/04/25 03:13:26;;;;;;;2.28;1.92;;;;;;;;;;2084769;28;20021;-64
2022/04/25 03:14:45;;;;;;;3.70;2.08;;;;;;;;;;2084819;28;20050;-64
2022/04/25 03:16:05;;;;;;;2.92;2.20;;;;;;;;;;2083278;28;20422;-65
2022/04/25 03:17:24;;;;;;;1.70;1.60;;;;;;;;;;2086428;28;20033;-65
2022/04/25 03:18:43;;;;;;;4.10;1.90;;;;;;;;;;2076404;28;20062;-65
2022/04/25 03:20:02;;;;;;;2.58;2.20;;;;;;;;;;2078941;28;20025;-65
2022/04/25 03:21:21;;;;;;;1.92;1.80;;;;;;;;;;2078245;28;20042;-65
2022/04/25 03:22:40;;;;;;;2.17;1.92;;;;;;;;;;2081671;28;20120;-65
2022/04/25 03:23:59;;;;;;;2.33;1.83;;;;;;;;;;2085586;28;20527;-66
2022/04/25 03:25:17;;;;;;;2.20;2.00;;;;;;;;;;2086144;28;20057;-65
2022/04/25 03:26:37;;;;;;;1.60;1.50;;;;;;;;;;2077142;28;20046;-65
2022/04/25 03:27:56;;;;;;;2.40;1.75;;;;;;;;;;2073329;28;20021;-65
2022/04/25 03:29:15;;;;;;;3.92;1.75;;;;;;;;;;2074552;28;20507;-65
2022/04/25 03:30:34;;;;;;;2.58;1.70;;;;;;;;;;2081497;28;20034;-65
2022/04/25 03:31:53;;;;;;;5.88;2.38;;;;;;;;;;2075221;28;20057;-65
2022/04/25 03:33:13;;;;;;;3.92;2.28;;;;;;;;;;2081440;28;20033;-65
2022/04/25 03:34:32;;;;;;;8.00;1.98;;;;;;;;;;2083572;28;20026;-65
2022/04/25 03:35:51;;;;;;;3.13;1.75;;;;;;;;;;2075262;28;20025;-65
2022/04/25 03:37:13;;;;;;;1.98;1.88;;;;;;;;;;2072747;28;20029;-65
2022/04/25 03:38:31;;;;;;;2.03;1.83;;;;;;;;;;2080587;28;20033;-65
2022/04/25 03:39:50;;;;;;;4.72;1.73;;;;;;;;;;2084056;28;20578;-65
2022/04/25 03:41:09;;;;;;;3.58;2.00;;;;;;;;;;2082879;28;20037;-64
2022/04/25 03:42:28;;;;;;;1.75;1.65;;;;;;;;;;2086608;28;20041;-65
2022/04/25 03:43:47;;;;;;;1.67;1.58;;;;;;;;;;2087434;28;20052;-65
2022/04/25 03:45:09;;;;;;;1.70;1.60;;;;;;;;;;2084103;28;20119;-65
2022/04/25 03:46:29;;;;;;;2.38;1.70;;;;;;;;;;2076574;28;20030;-65
2022/04/25 03:47:48;;;;;;;1.67;1.50;;;;;;;;;;2083332;28;20032;-65
2022/04/25 03:49:07;;;;;;;1.45;1.35;;;;;;;;;;2090493;28;20065;-65
2022/04/25 03:50:26;;;;;;;2.85;1.80;;;;;;;;;;2088288;28;20483;-64
2022/04/25 03:51:45;;;;;;;2.28;1.80;;;;;;;;;;2085850;28;20018;-64
2022/04/25 03:53:06;;;;;;;1.70;1.60;;;;;;;;;;2086260;28;20395;-66
2022/04/25 03:57:41;;;;;;;1.83;1.33;;;;;;;;;;2083750;28;20104;-64
2022/04/25 03:59:00;;;;;;;4.07;1.77;;;;;;;;;;2087179;28;20087;-64
2022/04/25 04:00:19;;;;;;;3.28;1.25;;;;;;;;;;2087827;28;20025;-64
2022/04/25 04:01:38;;;;;;;2.90;1.50;;;;;;;;;;2086603;28;20495;-64
2022/04/25 04:02:58;;;;;;;3.45;1.70;;;;;;;;;;2077928;28;20045;-63
2022/04/25 04:04:17;;;;;;;1.80;1.52;;;;;;;;;;2086033;28;20029;-64
2022/04/25 04:05:36;;;;;;;1.48;1.25;;;;;;;;;;2087274;28;20033;-64
2022/04/25 04:06:55;;;;;;;1.92;1.35;;;;;;;;;;2085774;28;20034;-64
2022/04/25 04:08:14;;;;;;;1.95;1.63;;;;;;;;;;2086595;28;20037;-65
2022/04/25 04:09:44;;;;;;;1.95;1.52;;;;;;;;;;2085398;28;20435;-65
2022/04/25 04:11:04;;;;;;;3.08;1.55;;;;;;;;;;2085868;28;20057;-66
2022/04/25 04:12:23;;;;;;;1.83;1.50;;;;;;;;;;2078875;28;20447;-66
2022/04/25 04:13:45;;;;;;;1.60;1.42;;;;;;;;;;2085176;28;20029;-64
2022/04/25 04:15:05;;;;;;;1.60;1.50;;;;;;;;;;2086426;28;20393;-64
2022/04/25 04:16:24;;;;;;;2.42;1.35;;;;;;;;;;2085000;28;20380;-65
2022/04/25 04:17:43;;;;;;;3.50;2.00;;;;;;;;;;2077451;28;20069;-64
2022/04/25 04:19:04;;;;;;;2.00;1.58;;;;;;;;;;2075013;28;20026;-64
2022/04/25 04:20:23;;;;;;;1.92;1.67;;;;;;;;;;2081233;28;20065;-64
2022/04/25 04:21:42;;;;;;;2.63;1.55;;;;;;;;;;2086245;28;20052;-67
2022/04/25 04:23:01;;;;;;;3.42;1.20;;;;;;;;;;2086234;28;20033;-64
2022/04/25 04:24:20;;;;;;;9.40;1.98;;;;;;;;;;2078846;28;20055;-64
2022/04/25 04:25:39;;;;;;;3.75;1.55;;;;;;;;;;2083000;28;20472;-64
2022/04/25 04:27:04;;;;;;;1.90;1.30;;;;;;;;;;2077143;28;20038;-65
2022/04/25 04:28:23;;;;;;;1.50;1.40;;;;;;;;;;2083085;28;20033;-64
2022/04/25 04:29:43;;;;;;;2.50;1.70;;;;;;;;;;2087819;28;20025;-65
2022/04/25 04:31:02;;;;;;;1.50;1.40;;;;;;;;;;2084066;28;20017;-65
2022/04/25 04:32:21;;;;;;;1.92;1.60;;;;;;;;;;2085411;28;20135;-65
2022/04/25 04:33:40;;;;;;;7.50;1.40;;;;;;;;;;2087096;28;20460;-65
2022/04/25 04:35:00;;;;;;;1.98;1.42;;;;;;;;;;2084793;28;20029;-66
2022/04/25 04:36:19;;;;;;;2.15;1.40;;;;;;;;;;2079624;28;20030;-65
2022/04/25 04:37:39;;;;;;;4.32;1.60;;;;;;;;;;2084366;28;20029;-66
2022/04/25 04:38:58;;;;;;;4.75;1.52;;;;;;;;;;2075281;28;20022;-66
2022/04/25 04:40:28;;;;;;;2.05;1.48;;;;;;;;;;2083239;28;20037;-66
2022/04/25 04:41:48;;;;;;;5.28;1.40;;;;;;;;;;2085555;28;20025;-66
2022/04/25 04:43:06;;;;;;;4.65;1.55;;;;;;;;;;2077158;28;20037;-65
2022/04/25 04:44:25;;;;;;;8.10;2.13;;;;;;;;;;2083758;28;20029;-65
2022/04/25 04:45:44;;;;;;;5.22;1.95;;;;;;;;;;2084565;28;20034;-65
2022/04/25 04:47:03;;;;;;;3.75;1.40;;;;;;;;;;2079290;28;20030;-65
2022/04/25 04:48:23;;;;;;;3.15;1.30;;;;;;;;;;2082141;28;20507;-66
2022/04/25 04:49:42;;;;;;;2.17;1.15;;;;;;;;;;2086229;28;20550;-66
2022/04/25 04:51:01;;;;;;;6.70;1.40;;;;;;;;;;2086134;28;20119;-68
2022/04/25 04:52:20;;;;;;;1.48;1.38;;;;;;;;;;2084755;28;20029;-69
2022/04/25 04:53:39;;;;;;;4.68;1.60;;;;;;;;;;2085638;28;20048;-69
2022/04/25 04:54:58;;;;;;;7.70;2.10;;;;;;;;;;2087611;28;20036;-67
2022/04/25 04:56:17;;;;;;;3.38;1.55;;;;;;;;;;2085893;28;20475;-67
2022/04/25 04:57:37;;;;;;;5.60;2.00;;;;;;;;;;2077755;28;20026;-66
2022/04/25 04:58:56;;;;;;;3.35;1.50;;;;;;;;;;2083450;28;20029;-66
2022/04/25 05:00:16;;;;;;;3.33;1.60;;;;;;;;;;2080525;28;20061;-68
2022/04/25 05:01:34;;;;;;;4.25;2.05;;;;;;;;;;2073932;28;20026;-67
2022/04/25 05:02:53;;;;;;;2.85;1.42;;;;;;;;;;2074852;28;20519;-67
2022/04/25 05:04:12;;;;;;;6.97;1.80;;;;;;;;;;2081783;28;20044;-68
2022/04/25 05:05:32;;;;;;;2.88;1.25;;;;;;;;;;2086881;28;20033;-66
2022/04/25 05:06:50;;;;;;;7.65;2.13;;;;;;;;;;2085843;28;20430;-67
2022/04/25 05:08:09;;;;;;;1.98;1.48;;;;;;;;;;2076980;28;20058;-68
2022/04/25 05:09:28;;;;;;;1.17;1.08;;;;;;;;;;2077032;28;20037;-68
2022/04/25 05:10:48;;;;;;;5.88;1.23;;;;;;;;;;2073690;28;20021;-68
2022/04/25 05:12:08;;;;;;;1.65;1.50;;;;;;;;;;2082675;28;20029;-67
2022/04/25 05:13:27;;;;;;;1.70;1.60;;;;;;;;;;2076549;28;20101;-67
2022/04/25 05:14:46;;;;;;;1.67;1.30;;;;;;;;;;2074738;28;20050;-68
2022/04/25 05:16:06;;;;;;;1.38;1.25;;;;;;;;;;2083560;28;20029;-67
2022/04/25 05:17:24;;;;;;;1.10;1.10;;;;;;;;;;2075461;28;20026;-69
2022/04/25 05:18:44;;;;;;;4.85;1.48;;;;;;;;;;2080942;28;20025;-67
2022/04/25 05:20:04;;;;;;;2.03;1.20;;;;;;;;;;2086175;28;20495;-68
2022/04/25 05:21:22;;;;;;;5.28;2.05;;;;;;;;;;2084396;28;20061;-67
2022/04/25 05:22:44;;;;;;;2.30;1.20;;;;;;;;;;2078309;28;20064;-67
2022/04/25 05:24:03;;;;;;;4.22;1.67;;;;;;;;;;2086529;28;20068;-67
2022/04/25 05:25:23;;;;;;;1.20;1.10;;;;;;;;;;2083070;28;20488;-68
2022/04/25 05:26:42;;;;;;;4.05;1.40;;;;;;;;;;2085446;28;20458;-66
2022/04/25 05:28:01;;;;;;;2.55;1.25;;;;;;;;;;2079718;28;20120;-68
2022/04/25 05:29:21;;;;;;;3.42;1.40;;;;;;;;;;2085153;28;20380;-67
2022/04/25 05:30:40;;;;;;;3.03;1.90;;;;;;;;;;2089193;28;20029;-69
2022/04/25 05:31:59;;;;;;;4.07;1.77;;;;;;;;;;2086336;28;20021;-69
2022/04/25 05:33:18;;;;;;;2.35;1.88;;;;;;;;;;2076493;28;20022;-69
2022/04/25 05:34:37;;;;;;;4.15;2.00;;;;;;;;;;2082041;28;20029;-69
2022/04/25 05:35:56;;;;;;;10.07;1.42;;;;;;;;;;2085160;28;20121;-69
2022/04/25 05:37:15;;;;;;;2.72;1.10;;;;;;;;;;2087432;28;20116;-70
2022/04/25 05:38:34;;;;;;;1.58;1.08;;;;;;;;;;2085327;28;20052;-69
2022/04/25 05:39:53;;;;;;;2.97;1.52;;;;;;;;;;2085205;28;20032;-68
2022/04/25 05:41:12;;;;;;;3.78;1.25;;;;;;;;;;2085037;28;20024;-69
2022/04/25 05:42:32;;;;;;;6.13;1.48;;;;;;;;;;2085352;28;20112;-70
2022/04/25 05:43:51;;;;;;;4.47;0.95;;;;;;;;;;2085908;28;20025;-69
2022/04/25 05:45:10;;;;;;;3.25;1.20;;;;;;;;;;2087119;28;20115;-70
2022/04/25 05:46:30;;;;;;;2.33;1.17;;;;;;;;;;2087407;28;20140;-68
2022/04/25 05:47:49;;;;;;;1.42;1.33;;;;;;;;;;2078736;28;20447;-68
2022/04/25 05:52:25;;;;;;;6.40;1.13;;;;;;;;;;2072010;28;20508;-69
2022/04/25 05:53:44;;;;;;;2.92;0.98;;;;;;;;;;2082764;28;20025;-69
2022/04/25 05:55:03;;;;;;;2.15;1.42;;;;;;;;;;2090524;28;20033;-68
2022/04/25 05:56:22;;;;;;;6.32;1.67;;;;;;;;;;2079434;28;20018;-69
2022/04/25 05:57:41;;;;;;;1.27;1.17;;;;;;;;;;2081892;28;20049;-69
2022/04/25 05:59:00;;;;;;;1.15;0.95;;;;;;;;;;2075032;28;20022;-65
2022/04/25 06:00:19;;;;;;;5.65;1.33;;;;;;;;;;2082321;28;20045;-65
2022/04/25 06:01:38;;;;;;;1.70;1.60;;;;;;;;;;2082925;28;20105;-65
2022/04/25 06:02:57;;;;;;;5.38;1.27;;;;;;;;;;2085508;28;20041;-65
2022/04/25 06:04:17;;;;;;;2.55;1.10;;;;;;;;;;2084840;28;20029;-66
2022/04/25 06:05:37;;;;;;;3.92;1.38;;;;;;;;;;2077262;28;20037;-64
2022/04/25 06:06:57;;;;;;;3.03;1.08;;;;;;;;;;2082022;28;20112;-66
2022/04/25 06:08:16;;;;;;;3.17;1.02;;;;;;;;;;2083593;28;20029;-65
2022/04/25 06:09:34;;;;;;;3.20;1.42;;;;;;;;;;2084064;28;20029;-66
2022/04/25 06:10:54;;;;;;;1.95;1.27;;;;;;;;;;2084712;28;20104;-63
2022/04/25 06:12:12;;;;;;;4.10;1.45;;;;;;;;;;2086376;28;20029;-66
2022/04/25 06:13:31;;;;;;;4.53;1.25;;;;;;;;;;2077409;28;20034;-65
2022/04/25 06:14:52;;;;;;;2.38;1.45;;;;;;;;;;2082337;28;20057;-65
2022/04/25 06:16:11;;;;;;;8.43;1.73;;;;;;;;;;2084883;28;20029;-66
2022/04/25 06:17:30;;;;;;;6.55;2.03;;;;;;;;;;2079800;28;20029;-66
2022/04/25 06:18:49;;;;;;;4.88;1.58;;;;;;;;;;2080762;28;20033;-65
2022/04/25 06:20:09;;;;;;;1.33;1.23;;;;;;;;;;2084059;28;20435;-67
2022/04/25 06:21:28;;;;;;;2.50;1.30;;;;;;;;;;2077136;28;20379;-65
2022/04/25 06:22:51;;;;;;;6.10;2.30;;;;;;;;;;2081344;28;20040;-65
2022/04/25 06:24:10;;;;;;;4.72;1.52;;;;;;;;;;2074745;28;20029;-64
2022/04/25 06:25:31;;;;;;;3.78;1.58;;;;;;;;;;2074662;28;20037;-65
2022/04/25 06:26:50;;;;;;;1.38;1.27;;;;;;;;;;2083395;28;20025;-65
2022/04/25 06:28:09;;;;;;;6.00;1.38;;;;;;;;;;2084942;28;20357;-64
2022/04/25 06:29:29;;;;;;;5.40;1.48;;;;;;;;;;2078301;28;20412;-65
2022/04/25 06:30:48;;;;;;;2.25;1.30;;;;;;;;;;2081888;28;20029;-66
2022/04/25 06:32:07;;;;;;;1.88;1.77;;;;;;;;;;2085595;28;20025;-65
2022/04/25 06:33:26;;;;;;;3.42;1.65;;;;;;;;;;2075367;28;20034;-65
2022/04/25 06:34:46;;;;;;;7.93;1.80;;;;;;;;;;2070919;28;20018;-65
2022/04/25 06:36:06;;;;;;;2.80;1.52;;;;;;;;;;2082349;28;20390;-65
2022/04/25 06:37:24;;;;;;;8.07;1.88;;;;;;;;;;2077191;28;20021;-65
2022/04/25 06:38:43;;;;;;;6.75;2.53;;;;;;;;;;2081765;28;20029;-64
2022/04/25 06:40:03;;;;;;;2.63;1.65;;;;;;;;;;2085988;28;20056;-64
2022/04/25 06:41:22;;;;;;;3.05;1.30;;;;;;;;;;2075000;28;20033;-67
2022/04/25 06:42:41;;;;;;;5.22;0.90;;;;;;;;;;2084051;28;20021;-65
2022/04/25 06:44:00;;;;;;;2.97;1.40;;;;;;;;;;2086592;28;20033;-65
2022/04/25 06:45:19;;;;;;;1.65;1.40;;;;;;;;;;2077217;28;20041;-66
2022/04/25 06:46:38;;;;;;;5.88;1.65;;;;;;;;;;2082028;28;20025;-65
2022/04/25 06:47:57;;;;;;;3.65;1.58;;;;;;;;;;2077345;28;20030;-66
2022/04/25 06:49:25;;;;;;;5.85;1.38;;;;;;;;;;2072270;28;20042;-65
2022/04/25 06:50:44;;;;;;;4.43;1.70;;;;;;;;;;2082658;28;20053;-65
2022/04/25 06:52:05;;;;;;;2.38;2.03;;;;;;;;;;2083517;28;20034;-65
2022/04/25 06:53:24;;;;;;;5.22;2.10;;;;;;;;;;2085708;28;20021;-65
2022/04/25 06:54:43;;;;;;;7.50;2.30;;;;;;;;;;2086032;28;20029;-65
2022/04/25 06:56:02;;;;;;;5.60;2.20;;;;;;;;;;2086427;28;20033;-65
2022/04/25 06:57:21;;;;;;;2.88;1.50;;;;;;;;;;2076335;28;20504;-65
2022/04/25 06:58:40;;;;;;;2.10;1.10;;;;;;;;;;2079739;28;20037;-66
2022/04/25 07:00:03;;;;;;;2.42;1.00;;;;;;;;;;2084435;28;20025;-66
2022/04/25 07:01:22;;;;;;;4.55;1.70;;;;;;;;;;2085198;28;20511;-66
2022/04/25 07:02:41;;;;;;;4.10;1.23;;;;;;;;;;2085840;28;20029;-66
2022/04/25 07:03:59;;;;;;;1.45;1.35;;;;;;;;;;2085624;28;20033;-66
2022/04/25 07:05:19;;;;;;;4.70;1.63;;;;;;;;;;2077063;28;20476;-66
2022/04/25 07:06:39;;;;;;;1.27;1.17;;;;;;;;;;2082578;28;20029;-66
2022/04/25 07:07:58;;;;;;;6.75;1.60;;;;;;;;;;2084566;28;20041;-65
2022/04/25 07:09:17;;;;;;;2.35;1.35;;;;;;;;;;2084034;28;20025;-66
2022/04/25 07:10:36;;;;;;;1.33;1.23;;;;;;;;;;2085151;28;20037;-64
2022/04/25 07:11:55;;;;;;;8.00;1.65;;;;;;;;;;2084610;28;20022;-65
2022/04/25 07:13:15;;;;;;;8.18;2.08;;;;;;;;;;2085113;28;20029;-65
2022/04/25 07:14:34;;;;;;;3.58;1.50;;;;;;;;;;2084502;28;20022;-64
2022/04/25 07:15:53;;;;;;;3.20;1.80;;;;;;;;;;2085156;28;20033;-65
2022/04/25 07:17:12;;;;;;;1.52;1.42;;;;;;;;;;2076100;28;20034;-64
2022/04/25 07:18:31;;;;;;;1.27;1.20;;;;;;;;;;2075119;28;20026;-64
2022/04/25 07:19:50;;;;;;;1.27;1.17;;;;;;;;;;2077008;28;20034;-65
2022/04/25 07:29:18;;;;;;;8.02;1.92;;;;;;;;;;2087544;28;20029;-65
2022/04/25 07:30:37;;;;;;;2.10;1.35;;;;;;;;;;2077111;28;20030;-65
2022/04/25 07:31:56;;;;;;;2.67;1.50;;;;;;;;;;2078057;28;20076;-64
2022/04/25 07:33:14;;;;;;;1.33;1.23;;;;;;;;;;2085224;28;20059;-64
2022/04/25 07:34:33;;;;;;;2.72;1.90;;;;;;;;;;2088281;28;20096;-64
2022/04/25 07:35:53;;;;;;;3.85;1.42;;;;;;;;;;2087950;28;20029;-64
2022/04/25 07:37:13;;;;;;;2.72;1.55;;;;;;;;;;2088254;28;20026;-64
2022/04/25 07:38:32;;;;;;;2.13;1.48;;;;;;;;;;2077581;28;20018;-64
2022/04/25 07:39:51;;;;;;;1.50;1.40;;;;;;;;;;2083083;28;20021;-64
2022/04/25 07:41:10;;;;;;;3.22;1.48;;;;;;;;;;2077694;28;20037;-64
2022/04/25 07:42:31;;;;;;;3.33;2.00;;;;;;;;;;2075691;28;20046;-64
2022/04/25 07:43:50;;;;;;;4.47;1.50;;;;;;;;;;2084869;28;20028;-66
2022/04/25 07:45:09;;;;;;;1.75;1.60;;;;;;;;;;2085980;28;20492;-65
2022/04/25 07:46:28;;;;;;;3.78;1.80;;;;;;;;;;2086949;28;20041;-65
2022/04/25 07:47:47;;;;;;;1.48;1.38;;;;;;;;;;2077483;28;20493;-65
2022/04/25 07:49:10;;;;;;;6.95;1.90;;;;;;;;;;2080565;28;20041;-65
2022/04/25 07:50:29;;;;;;;10.63;1.92;;;;;;;;;;2087679;28;20403;-64
2022/04/25 07:51:48;;;;;;;4.10;1.67;;;;;;;;;;2087545;28;20026;-64
2022/04/25 07:53:07;;;;;;;7.63;1.85;;;;;;;;;;2086817;28;20105;-65
2022/04/25 07:54:26;;;;;;;4.40;2.20;;;;;;;;;;2077387;28;20982;-67
2022/04/25 07:55:45;;;;;;;3.63;1.70;;;;;;;;;;2079601;28;20089;-66
2022/04/25 07:57:05;;;;;;;1.63;1.50;;;;;;;;;;2081559;28;20041;-64
2022/04/25 07:58:25;;;;;;;2.17;1.58;;;;;;;;;;2075987;28;20021;-66
2022/04/25 07:59:43;;;;;;;2.03;1.80;;;;;;;;;;2084015;28;20033;-65
2022/04/25 08:01:03;;;;;;;2.50;1.52;;;;;;;;;;2086730;28;20052;-66
2022/04/25 08:02:23;;;;;;;5.57;1.92;;;;;;;;;;2087133;28;20033;-66
2022/04/25 08:03:42;;;;;;;6.63;2.15;;;;;;;;;;2080708;28;20022;-66
2022/04/25 08:05:01;;;;;;;3.53;1.83;;;;;;;;;;2082014;28;20105;-66
2022/04/25 08:06:20;;;;;;;3.85;1.63;;;;;;;;;;2086489;28;20049;-65
2022/04/25 08:07:40;;;;;;;1.40;1.30;;;;;;;;;;2082275;28;20029;-66
2022/04/25 08:09:01;;;;;;;2.60;1.70;;;;;;;;;;2083986;28;20116;-65
2022/04/25 08:10:20;;;;;;;1.83;1.35;;;;;;;;;;2084830;28;20033;-65
2022/04/25 08:11:39;;;;;;;5.55;2.00;;;;;;;;;;2087130;28;20498;-66
2022/04/25 08:18:01;;;;;;;7.50;1.90;;;;;;;;;;2084486;28;20029;-65
2022/04/25 08:19:20;;;;;;;2.45;1.60;;;;;;;;;;2084562;28;20029;-66
2022/04/25 08:20:39;;;;;;;5.32;1.70;;;;;;;;;;2085779;28;20061;-64